sensor_id;sensor_type;location;lat;lon;timestamp;P1;durP1;ratioP1;P2;durP2;ratioP2
70199;SDS011;57587;55.688;37.600;2022-08-23T00:01:55;46.90;;;25.10;;
70199;SDS011;57587;55.688;37.600;2022-08-23T00:04:29;40.92;;;23.92;;
70199;SDS011;57587;55.688;37.600;2022-08-23T00:07:03;39.38;;;24.63;;
70199;SDS011;57587;55.688;37.600;2022-08-23T00:09:32;42.10;;;25.15;;
70199;SDS011;57587;55.688;37.600;2022-08-23T00:14:33;42.15;;;24.55;;
70199;SDS011;57587;55.688;37.600;2022-08-23T00:17:02;47.40;;;23.35;;
70199;SDS011;57587;55.688;37.600;2022-08-23T00:19:31;40.45;;;23.02;;
70199;SDS011;57587;55.688;37.600;2022-08-23T00:21:58;42.05;;;23.98;;
70199;SDS011;57587;55.688;37.600;2022-08-23T00:24:25;45.70;;;23.70;;
70199;SDS011;57587;55.688;37.600;2022-08-23T00:29:23;45.10;;;23.48;;
70199;SDS011;57587;55.688;37.600;2022-08-23T00:31:57;50.42;;;23.13;;
70199;SDS011;57587;55.688;37.600;2022-08-23T00:34:24;44.67;;;24.00;;
70199;SDS011;57587;55.688;37.600;2022-08-23T00:36:52;45.43;;;23.07;;
70199;SDS011;57587;55.688;37.600;2022-08-23T00:39:21;43.17;;;23.30;;
70199;SDS011;57587;55.688;37.600;2022-08-23T00:41:48;46.50;;;23.45;;
70199;SDS011;57587;55.688;37.600;2022-08-23T00:44:21;45.33;;;24.02;;
70199;SDS011;57587;55.688;37.600;2022-08-23T00:47:10;42.83;;;23.70;;
70199;SDS011;57587;55.688;37.600;2022-08-23T00:50:05;40.47;;;22.90;;
70199;SDS011;57587;55.688;37.600;2022-08-23T00:52:51;37.33;;;22.67;;
70199;SDS011;57587;55.688;37.600;2022-08-23T00:55:29;40.55;;;23.00;;
70199;SDS011;57587;55.688;37.600;2022-08-23T01:02:24;43.20;;;23.40;;
70199;SDS011;57587;55.688;37.600;2022-08-23T01:04:57;48.57;;;23.33;;
70199;SDS011;57587;55.688;37.600;2022-08-23T01:11:01;42.38;;;23.52;;
70199;SDS011;57587;55.688;37.600;2022-08-23T01:13:12;43.10;;;24.15;;
70199;SDS011;57587;55.688;37.600;2022-08-23T01:15:47;46.58;;;23.33;;
70199;SDS011;57587;55.688;37.600;2022-08-23T01:18:21;44.47;;;24.10;;
70199;SDS011;57587;55.688;37.600;2022-08-23T01:20:56;45.72;;;24.30;;
70199;SDS011;57587;55.688;37.600;2022-08-23T01:23:40;43.13;;;24.38;;
70199;SDS011;57587;55.688;37.600;2022-08-23T01:26:25;44.35;;;23.42;;
70199;SDS011;57587;55.688;37.600;2022-08-23T01:28:54;41.95;;;24.88;;
70199;SDS011;57587;55.688;37.600;2022-08-23T01:31:21;45.70;;;24.00;;
70199;SDS011;57587;55.688;37.600;2022-08-23T01:34:06;46.58;;;24.17;;
70199;SDS011;57587;55.688;37.600;2022-08-23T01:36:35;44.58;;;25.13;;
70199;SDS011;57587;55.688;37.600;2022-08-23T01:39:03;41.40;;;24.13;;
70199;SDS011;57587;55.688;37.600;2022-08-23T01:41:31;43.08;;;24.38;;
70199;SDS011;57587;55.688;37.600;2022-08-23T01:43:59;43.07;;;25.73;;
70199;SDS011;57587;55.688;37.600;2022-08-23T01:46:27;38.92;;;24.30;;
70199;SDS011;57587;55.688;37.600;2022-08-23T01:53:02;41.38;;;23.95;;
70199;SDS011;57587;55.688;37.600;2022-08-23T01:55:33;42.70;;;24.38;;
70199;SDS011;57587;55.688;37.600;2022-08-23T01:58:01;48.70;;;25.27;;
70199;SDS011;57587;55.688;37.600;2022-08-23T02:00:30;47.28;;;26.30;;
70199;SDS011;57587;55.688;37.600;2022-08-23T02:03:02;45.55;;;25.23;;
70199;SDS011;57587;55.688;37.600;2022-08-23T02:05:30;47.78;;;25.55;;
70199;SDS011;57587;55.688;37.600;2022-08-23T02:07:59;45.30;;;26.17;;
70199;SDS011;57587;55.688;37.600;2022-08-23T02:10:52;49.73;;;25.00;;
70199;SDS011;57587;55.688;37.600;2022-08-23T02:13:20;40.20;;;24.27;;
70199;SDS011;57587;55.688;37.600;2022-08-23T02:15:48;45.28;;;24.75;;
70199;SDS011;57587;55.688;37.600;2022-08-23T02:18:18;44.83;;;24.02;;
70199;SDS011;57587;55.688;37.600;2022-08-23T02:20:48;43.78;;;24.25;;
70199;SDS011;57587;55.688;37.600;2022-08-23T02:23:17;45.27;;;24.80;;
70199;SDS011;57587;55.688;37.600;2022-08-23T02:25:45;48.85;;;25.15;;
70199;SDS011;57587;55.688;37.600;2022-08-23T02:28:13;50.78;;;25.58;;
70199;SDS011;57587;55.688;37.600;2022-08-23T02:30:42;43.45;;;25.05;;
70199;SDS011;57587;55.688;37.600;2022-08-23T02:33:12;46.50;;;25.25;;
70199;SDS011;57587;55.688;37.600;2022-08-23T02:35:41;43.77;;;25.47;;
70199;SDS011;57587;55.688;37.600;2022-08-23T02:38:10;43.70;;;23.95;;
70199;SDS011;57587;55.688;37.600;2022-08-23T02:40:38;42.40;;;25.05;;
70199;SDS011;57587;55.688;37.600;2022-08-23T02:43:06;42.05;;;26.00;;
70199;SDS011;57587;55.688;37.600;2022-08-23T02:45:34;44.88;;;25.20;;
70199;SDS011;57587;55.688;37.600;2022-08-23T02:48:05;40.40;;;23.50;;
70199;SDS011;57587;55.688;37.600;2022-08-23T02:50:51;54.35;;;25.70;;
70199;SDS011;57587;55.688;37.600;2022-08-23T02:53:18;43.03;;;24.65;;
70199;SDS011;57587;55.688;37.600;2022-08-23T02:55:46;48.67;;;25.58;;
70199;SDS011;57587;55.688;37.600;2022-08-23T02:58:13;45.67;;;24.80;;
70199;SDS011;57587;55.688;37.600;2022-08-23T03:00:40;47.40;;;24.47;;
70199;SDS011;57587;55.688;37.600;2022-08-23T03:03:13;43.45;;;24.25;;
70199;SDS011;57587;55.688;37.600;2022-08-23T03:05:43;42.53;;;24.10;;
70199;SDS011;57587;55.688;37.600;2022-08-23T03:08:12;45.05;;;24.40;;
70199;SDS011;57587;55.688;37.600;2022-08-23T03:10:46;45.28;;;23.90;;
70199;SDS011;57587;55.688;37.600;2022-08-23T03:13:15;40.97;;;23.77;;
70199;SDS011;57587;55.688;37.600;2022-08-23T03:15:44;48.33;;;24.45;;
70199;SDS011;57587;55.688;37.600;2022-08-23T03:18:12;39.65;;;23.48;;
70199;SDS011;57587;55.688;37.600;2022-08-23T03:20:39;46.60;;;23.50;;
70199;SDS011;57587;55.688;37.600;2022-08-23T03:23:09;39.53;;;22.10;;
70199;SDS011;57587;55.688;37.600;2022-08-23T03:25:37;38.70;;;23.53;;
70199;SDS011;57587;55.688;37.600;2022-08-23T03:28:15;42.33;;;23.42;;
70199;SDS011;57587;55.688;37.600;2022-08-23T03:30:43;43.17;;;23.73;;
70199;SDS011;57587;55.688;37.600;2022-08-23T03:33:11;38.83;;;22.95;;
70199;SDS011;57587;55.688;37.600;2022-08-23T03:35:39;40.60;;;25.02;;
70199;SDS011;57587;55.688;37.600;2022-08-23T03:38:10;36.33;;;23.53;;
70199;SDS011;57587;55.688;37.600;2022-08-23T03:40:37;38.38;;;22.65;;
70199;SDS011;57587;55.688;37.600;2022-08-23T03:43:05;36.97;;;22.88;;
70199;SDS011;57587;55.688;37.600;2022-08-23T03:45:35;37.85;;;22.92;;
70199;SDS011;57587;55.688;37.600;2022-08-23T03:48:03;42.75;;;23.13;;
70199;SDS011;57587;55.688;37.600;2022-08-23T03:50:32;39.67;;;22.93;;
70199;SDS011;57587;55.688;37.600;2022-08-23T03:53:00;38.72;;;22.27;;
70199;SDS011;57587;55.688;37.600;2022-08-23T03:55:27;39.47;;;22.63;;
70199;SDS011;57587;55.688;37.600;2022-08-23T03:57:55;38.42;;;23.02;;
70199;SDS011;57587;55.688;37.600;2022-08-23T04:00:22;39.70;;;22.55;;
70199;SDS011;57587;55.688;37.600;2022-08-23T04:02:51;38.37;;;22.47;;
70199;SDS011;57587;55.688;37.600;2022-08-23T04:05:21;43.70;;;22.23;;
70199;SDS011;57587;55.688;37.600;2022-08-23T04:07:49;38.90;;;22.08;;
70199;SDS011;57587;55.688;37.600;2022-08-23T04:10:18;37.70;;;23.05;;
70199;SDS011;57587;55.688;37.600;2022-08-23T04:12:49;40.75;;;22.65;;
70199;SDS011;57587;55.688;37.600;2022-08-23T04:15:20;36.33;;;22.43;;
70199;SDS011;57587;55.688;37.600;2022-08-23T04:17:50;34.47;;;22.05;;
70199;SDS011;57587;55.688;37.600;2022-08-23T04:20:17;35.78;;;22.23;;
70199;SDS011;57587;55.688;37.600;2022-08-23T04:23:03;40.85;;;23.15;;
70199;SDS011;57587;55.688;37.600;2022-08-23T04:25:38;34.75;;;20.65;;
70199;SDS011;57587;55.688;37.600;2022-08-23T04:28:05;36.20;;;21.73;;
70199;SDS011;57587;55.688;37.600;2022-08-23T04:30:32;35.90;;;21.38;;
70199;SDS011;57587;55.688;37.600;2022-08-23T04:33:01;38.72;;;22.45;;
70199;SDS011;57587;55.688;37.600;2022-08-23T04:35:38;39.92;;;21.65;;
70199;SDS011;57587;55.688;37.600;2022-08-23T04:38:09;36.30;;;21.33;;
70199;SDS011;57587;55.688;37.600;2022-08-23T04:40:53;37.83;;;21.27;;
70199;SDS011;57587;55.688;37.600;2022-08-23T04:43:40;40.53;;;22.77;;
70199;SDS011;57587;55.688;37.600;2022-08-23T04:46:11;39.25;;;21.48;;
70199;SDS011;57587;55.688;37.600;2022-08-23T04:48:42;39.00;;;23.33;;
70199;SDS011;57587;55.688;37.600;2022-08-23T04:51:11;35.22;;;21.08;;
70199;SDS011;57587;55.688;37.600;2022-08-23T04:53:39;34.40;;;21.80;;
70199;SDS011;57587;55.688;37.600;2022-08-23T04:56:25;40.67;;;22.23;;
70199;SDS011;57587;55.688;37.600;2022-08-23T04:58:52;31.98;;;20.55;;
70199;SDS011;57587;55.688;37.600;2022-08-23T05:01:20;31.30;;;20.52;;
70199;SDS011;57587;55.688;37.600;2022-08-23T05:03:52;43.42;;;20.77;;
70199;SDS011;57587;55.688;37.600;2022-08-23T05:06:23;33.00;;;20.43;;
70199;SDS011;57587;55.688;37.600;2022-08-23T05:08:50;32.20;;;20.80;;
70199;SDS011;57587;55.688;37.600;2022-08-23T05:11:20;38.13;;;20.30;;
70199;SDS011;57587;55.688;37.600;2022-08-23T05:13:48;34.40;;;21.05;;
70199;SDS011;57587;55.688;37.600;2022-08-23T05:16:15;32.20;;;18.38;;
70199;SDS011;57587;55.688;37.600;2022-08-23T05:18:58;40.73;;;21.03;;
70199;SDS011;57587;55.688;37.600;2022-08-23T05:21:25;42.60;;;19.95;;
70199;SDS011;57587;55.688;37.600;2022-08-23T05:23:52;34.38;;;19.67;;
70199;SDS011;57587;55.688;37.600;2022-08-23T05:26:23;36.90;;;20.17;;
70199;SDS011;57587;55.688;37.600;2022-08-23T05:28:50;33.00;;;19.63;;
70199;SDS011;57587;55.688;37.600;2022-08-23T05:31:23;29.93;;;19.10;;
70199;SDS011;57587;55.688;37.600;2022-08-23T05:33:54;34.63;;;18.95;;
70199;SDS011;57587;55.688;37.600;2022-08-23T05:36:37;35.42;;;19.00;;
70199;SDS011;57587;55.688;37.600;2022-08-23T05:39:25;37.30;;;19.35;;
70199;SDS011;57587;55.688;37.600;2022-08-23T05:42:06;32.15;;;18.38;;
70199;SDS011;57587;55.688;37.600;2022-08-23T05:44:36;33.90;;;18.53;;
70199;SDS011;57587;55.688;37.600;2022-08-23T05:47:05;39.22;;;20.25;;
70199;SDS011;57587;55.688;37.600;2022-08-23T05:50:03;34.90;;;18.60;;
70199;SDS011;57587;55.688;37.600;2022-08-23T05:52:34;34.58;;;18.77;;
70199;SDS011;57587;55.688;37.600;2022-08-23T05:55:02;38.63;;;19.60;;
70199;SDS011;57587;55.688;37.600;2022-08-23T05:57:38;29.87;;;18.60;;
70199;SDS011;57587;55.688;37.600;2022-08-23T06:00:11;30.75;;;18.15;;
70199;SDS011;57587;55.688;37.600;2022-08-23T06:02:50;31.48;;;18.23;;
70199;SDS011;57587;55.688;37.600;2022-08-23T06:05:20;37.88;;;18.63;;
70199;SDS011;57587;55.688;37.600;2022-08-23T06:07:51;35.10;;;17.63;;
70199;SDS011;57587;55.688;37.600;2022-08-23T06:10:26;36.17;;;18.87;;
70199;SDS011;57587;55.688;37.600;2022-08-23T06:13:04;37.67;;;16.90;;
70199;SDS011;57587;55.688;37.600;2022-08-23T06:15:33;32.65;;;17.48;;
70199;SDS011;57587;55.688;37.600;2022-08-23T06:18:02;32.17;;;18.10;;
70199;SDS011;57587;55.688;37.600;2022-08-23T06:20:39;33.45;;;18.23;;
70199;SDS011;57587;55.688;37.600;2022-08-23T06:23:12;30.57;;;18.03;;
70199;SDS011;57587;55.688;37.600;2022-08-23T06:25:41;31.35;;;18.45;;
70199;SDS011;57587;55.688;37.600;2022-08-23T06:28:17;35.40;;;17.45;;
70199;SDS011;57587;55.688;37.600;2022-08-23T06:31:09;30.02;;;17.45;;
70199;SDS011;57587;55.688;37.600;2022-08-23T06:33:59;28.25;;;18.02;;
70199;SDS011;57587;55.688;37.600;2022-08-23T06:36:55;29.17;;;16.13;;
70199;SDS011;57587;55.688;37.600;2022-08-23T06:39:47;28.80;;;16.30;;
70199;SDS011;57587;55.688;37.600;2022-08-23T06:42:35;29.17;;;16.60;;
70199;SDS011;57587;55.688;37.600;2022-08-23T06:45:07;28.95;;;16.63;;
70199;SDS011;57587;55.688;37.600;2022-08-23T06:47:37;33.17;;;17.05;;
70199;SDS011;57587;55.688;37.600;2022-08-23T06:50:05;27.53;;;15.60;;
70199;SDS011;57587;55.688;37.600;2022-08-23T06:52:58;26.42;;;16.50;;
70199;SDS011;57587;55.688;37.600;2022-08-23T06:55:55;29.27;;;16.30;;
70199;SDS011;57587;55.688;37.600;2022-08-23T06:58:33;28.65;;;16.08;;
70199;SDS011;57587;55.688;37.600;2022-08-23T07:01:12;30.98;;;16.70;;
70199;SDS011;57587;55.688;37.600;2022-08-23T07:04:08;26.73;;;16.27;;
70199;SDS011;57587;55.688;37.600;2022-08-23T07:06:58;27.10;;;15.10;;
70199;SDS011;57587;55.688;37.600;2022-08-23T07:09:35;23.35;;;14.32;;
70199;SDS011;57587;55.688;37.600;2022-08-23T07:12:02;29.58;;;14.93;;
70199;SDS011;57587;55.688;37.600;2022-08-23T07:14:32;22.13;;;14.27;;
70199;SDS011;57587;55.688;37.600;2022-08-23T07:17:01;25.20;;;14.03;;
70199;SDS011;57587;55.688;37.600;2022-08-23T07:19:30;27.75;;;15.60;;
70199;SDS011;57587;55.688;37.600;2022-08-23T07:22:00;30.92;;;14.95;;
70199;SDS011;57587;55.688;37.600;2022-08-23T07:24:31;26.40;;;15.68;;
70199;SDS011;57587;55.688;37.600;2022-08-23T07:27:03;24.00;;;14.40;;
70199;SDS011;57587;55.688;37.600;2022-08-23T07:30:03;26.47;;;15.17;;
70199;SDS011;57587;55.688;37.600;2022-08-23T07:32:33;25.58;;;15.13;;
70199;SDS011;57587;55.688;37.600;2022-08-23T07:35:19;26.27;;;14.60;;
70199;SDS011;57587;55.688;37.600;2022-08-23T07:37:49;26.30;;;15.30;;
70199;SDS011;57587;55.688;37.600;2022-08-23T07:40:18;28.90;;;14.15;;
70199;SDS011;57587;55.688;37.600;2022-08-23T07:42:51;22.60;;;15.33;;
70199;SDS011;57587;55.688;37.600;2022-08-23T07:45:22;29.17;;;15.05;;
70199;SDS011;57587;55.688;37.600;2022-08-23T07:47:53;26.85;;;17.38;;
70199;SDS011;57587;55.688;37.600;2022-08-23T07:50:23;21.33;;;13.88;;
70199;SDS011;57587;55.688;37.600;2022-08-23T07:52:57;22.85;;;13.95;;
70199;SDS011;57587;55.688;37.600;2022-08-23T07:55:24;32.73;;;13.17;;
70199;SDS011;57587;55.688;37.600;2022-08-23T07:58:10;24.27;;;12.48;;
70199;SDS011;57587;55.688;37.600;2022-08-23T08:00:50;24.25;;;13.23;;
70199;SDS011;57587;55.688;37.600;2022-08-23T08:03:32;30.42;;;14.82;;
70199;SDS011;57587;55.688;37.600;2022-08-23T08:06:27;33.90;;;14.23;;
70199;SDS011;57587;55.688;37.600;2022-08-23T08:09:00;24.17;;;13.73;;
70199;SDS011;57587;55.688;37.600;2022-08-23T08:11:28;25.88;;;13.65;;
70199;SDS011;57587;55.688;37.600;2022-08-23T08:14:03;28.50;;;13.85;;
70199;SDS011;57587;55.688;37.600;2022-08-23T08:16:42;25.48;;;12.68;;
70199;SDS011;57587;55.688;37.600;2022-08-23T08:19:19;26.60;;;13.43;;
70199;SDS011;57587;55.688;37.600;2022-08-23T08:22:09;25.80;;;13.00;;
70199;SDS011;57587;55.688;37.600;2022-08-23T08:24:58;21.85;;;12.50;;
70199;SDS011;57587;55.688;37.600;2022-08-23T08:27:26;24.02;;;13.00;;
70199;SDS011;57587;55.688;37.600;2022-08-23T08:29:54;24.92;;;12.05;;
70199;SDS011;57587;55.688;37.600;2022-08-23T08:32:21;27.17;;;11.55;;
70199;SDS011;57587;55.688;37.600;2022-08-23T08:34:49;19.37;;;11.13;;
70199;SDS011;57587;55.688;37.600;2022-08-23T08:37:16;17.35;;;11.30;;
70199;SDS011;57587;55.688;37.600;2022-08-23T08:39:44;27.77;;;11.32;;
70199;SDS011;57587;55.688;37.600;2022-08-23T08:45:24;16.92;;;11.30;;
70199;SDS011;57587;55.688;37.600;2022-08-23T08:47:58;21.97;;;11.53;;
70199;SDS011;57587;55.688;37.600;2022-08-23T08:50:50;13.23;;;10.77;;
70199;SDS011;57587;55.688;37.600;2022-08-23T08:53:37;17.23;;;11.38;;
70199;SDS011;57587;55.688;37.600;2022-08-23T08:56:31;14.38;;;11.23;;
70199;SDS011;57587;55.688;37.600;2022-08-23T08:59:12;20.83;;;11.35;;
70199;SDS011;57587;55.688;37.600;2022-08-23T09:01:46;18.47;;;11.10;;
70199;SDS011;57587;55.688;37.600;2022-08-23T09:04:20;15.57;;;10.43;;
70199;SDS011;57587;55.688;37.600;2022-08-23T09:06:51;19.17;;;11.57;;
70199;SDS011;57587;55.688;37.600;2022-08-23T09:12:26;19.63;;;12.02;;
70199;SDS011;57587;55.688;37.600;2022-08-23T09:18:13;26.67;;;12.77;;
70199;SDS011;57587;55.688;37.600;2022-08-23T09:20:43;21.08;;;12.60;;
70199;SDS011;57587;55.688;37.600;2022-08-23T09:23:16;16.70;;;12.02;;
70199;SDS011;57587;55.688;37.600;2022-08-23T09:25:54;22.95;;;12.75;;
70199;SDS011;57587;55.688;37.600;2022-08-23T09:28:33;22.10;;;11.37;;
70199;SDS011;57587;55.688;37.600;2022-08-23T09:31:03;17.63;;;12.32;;
70199;SDS011;57587;55.688;37.600;2022-08-23T09:33:38;16.17;;;11.45;;
70199;SDS011;57587;55.688;37.600;2022-08-23T09:36:23;20.27;;;11.30;;
70199;SDS011;57587;55.688;37.600;2022-08-23T09:38:57;16.27;;;11.32;;
70199;SDS011;57587;55.688;37.600;2022-08-23T09:41:34;22.37;;;11.17;;
70199;SDS011;57587;55.688;37.600;2022-08-23T09:44:05;14.65;;;10.18;;
70199;SDS011;57587;55.688;37.600;2022-08-23T09:46:42;16.00;;;10.35;;
70199;SDS011;57587;55.688;37.600;2022-08-23T09:49:26;21.98;;;10.93;;
70199;SDS011;57587;55.688;37.600;2022-08-23T09:55:08;20.57;;;10.00;;
70199;SDS011;57587;55.688;37.600;2022-08-23T09:57:52;18.02;;;9.98;;
70199;SDS011;57587;55.688;37.600;2022-08-23T10:00:28;14.38;;;9.80;;
70199;SDS011;57587;55.688;37.600;2022-08-23T10:06:00;15.35;;;9.32;;
70199;SDS011;57587;55.688;37.600;2022-08-23T10:08:33;19.63;;;11.00;;
70199;SDS011;57587;55.688;37.600;2022-08-23T10:11:22;21.35;;;9.60;;
70199;SDS011;57587;55.688;37.600;2022-08-23T10:13:55;13.27;;;9.20;;
70199;SDS011;57587;55.688;37.600;2022-08-23T10:22:44;15.90;;;9.43;;
70199;SDS011;57587;55.688;37.600;2022-08-23T10:28:16;14.90;;;8.77;;
70199;SDS011;57587;55.688;37.600;2022-08-23T10:31:33;16.08;;;9.13;;
70199;SDS011;57587;55.688;37.600;2022-08-23T10:39:42;14.73;;;9.00;;
70199;SDS011;57587;55.688;37.600;2022-08-23T10:42:18;14.63;;;8.85;;
70199;SDS011;57587;55.688;37.600;2022-08-23T10:45:38;14.57;;;8.73;;
70199;SDS011;57587;55.688;37.600;2022-08-23T10:50:32;14.30;;;7.10;;
70199;SDS011;57587;55.688;37.600;2022-08-23T10:53:30;13.07;;;7.70;;
70199;SDS011;57587;55.688;37.600;2022-08-23T10:56:23;13.40;;;8.27;;
70199;SDS011;57587;55.688;37.600;2022-08-23T11:10:16;12.15;;;7.70;;
70199;SDS011;57587;55.688;37.600;2022-08-23T11:12:59;14.32;;;8.40;;
70199;SDS011;57587;55.688;37.600;2022-08-23T11:18:37;14.20;;;8.75;;
70199;SDS011;57587;55.688;37.600;2022-08-23T11:21:43;16.37;;;8.67;;
70199;SDS011;57587;55.688;37.600;2022-08-23T11:24:31;13.15;;;8.80;;
70199;SDS011;57587;55.688;37.600;2022-08-23T11:27:26;13.32;;;8.85;;
70199;SDS011;57587;55.688;37.600;2022-08-23T11:29:55;12.80;;;8.43;;
70199;SDS011;57587;55.688;37.600;2022-08-23T11:32:32;15.02;;;8.52;;
70199;SDS011;57587;55.688;37.600;2022-08-23T11:35:11;12.23;;;8.83;;
70199;SDS011;57587;55.688;37.600;2022-08-23T11:38:00;17.58;;;8.73;;
70199;SDS011;57587;55.688;37.600;2022-08-23T11:43:33;13.02;;;8.63;;
70199;SDS011;57587;55.688;37.600;2022-08-23T11:52:10;18.33;;;7.93;;
70199;SDS011;57587;55.688;37.600;2022-08-23T11:57:55;14.25;;;6.47;;
70199;SDS011;57587;55.688;37.600;2022-08-23T12:00:50;12.75;;;6.55;;
70199;SDS011;57587;55.688;37.600;2022-08-23T12:03:28;13.87;;;6.40;;
70199;SDS011;57587;55.688;37.600;2022-08-23T12:06:08;11.13;;;6.25;;
70199;SDS011;57587;55.688;37.600;2022-08-23T12:11:12;12.32;;;7.07;;
70199;SDS011;57587;55.688;37.600;2022-08-23T12:21:25;11.00;;;6.82;;
70199;SDS011;57587;55.688;37.600;2022-08-23T12:24:11;13.05;;;7.70;;
70199;SDS011;57587;55.688;37.600;2022-08-23T12:26:44;16.20;;;6.50;;
70199;SDS011;57587;55.688;37.600;2022-08-23T12:29:20;18.67;;;7.10;;
70199;SDS011;57587;55.688;37.600;2022-08-23T12:32:22;16.40;;;7.18;;
70199;SDS011;57587;55.688;37.600;2022-08-23T12:40:34;10.85;;;7.05;;
70199;SDS011;57587;55.688;37.600;2022-08-23T12:43:24;12.20;;;7.17;;
70199;SDS011;57587;55.688;37.600;2022-08-23T12:45:58;13.40;;;7.40;;
70199;SDS011;57587;55.688;37.600;2022-08-23T12:48:29;10.40;;;7.18;;
70199;SDS011;57587;55.688;37.600;2022-08-23T12:50:59;10.80;;;6.45;;
70199;SDS011;57587;55.688;37.600;2022-08-23T12:53:34;12.70;;;7.20;;
70199;SDS011;57587;55.688;37.600;2022-08-23T12:56:15;11.93;;;7.30;;
70199;SDS011;57587;55.688;37.600;2022-08-23T12:59:03;9.27;;;6.97;;
70199;SDS011;57587;55.688;37.600;2022-08-23T13:01:34;11.32;;;7.10;;
70199;SDS011;57587;55.688;37.600;2022-08-23T13:04:10;20.58;;;7.22;;
70199;SDS011;57587;55.688;37.600;2022-08-23T13:06:47;10.32;;;7.32;;
70199;SDS011;57587;55.688;37.600;2022-08-23T13:09:32;14.67;;;6.97;;
70199;SDS011;57587;55.688;37.600;2022-08-23T13:12:07;12.20;;;7.57;;
70199;SDS011;57587;55.688;37.600;2022-08-23T13:14:44;14.45;;;6.85;;
70199;SDS011;57587;55.688;37.600;2022-08-23T13:17:30;11.00;;;7.40;;
70199;SDS011;57587;55.688;37.600;2022-08-23T13:25:02;11.47;;;6.47;;
70199;SDS011;57587;55.688;37.600;2022-08-23T13:30:59;13.02;;;6.68;;
70199;SDS011;57587;55.688;37.600;2022-08-23T13:33:30;13.30;;;7.25;;
70199;SDS011;57587;55.688;37.600;2022-08-23T13:36:12;10.25;;;7.15;;
70199;SDS011;57587;55.688;37.600;2022-08-23T13:38:55;11.07;;;6.73;;
70199;SDS011;57587;55.688;37.600;2022-08-23T13:41:34;12.48;;;7.00;;
70199;SDS011;57587;55.688;37.600;2022-08-23T13:44:06;13.23;;;7.20;;
70199;SDS011;57587;55.688;37.600;2022-08-23T13:46:42;12.18;;;7.22;;
70199;SDS011;57587;55.688;37.600;2022-08-23T13:54:49;11.55;;;6.78;;
70199;SDS011;57587;55.688;37.600;2022-08-23T13:57:21;9.07;;;6.88;;
70199;SDS011;57587;55.688;37.600;2022-08-23T13:59:59;10.45;;;7.15;;
70199;SDS011;57587;55.688;37.600;2022-08-23T14:02:49;11.70;;;6.50;;
70199;SDS011;57587;55.688;37.600;2022-08-23T14:05:25;9.47;;;6.60;;
70199;SDS011;57587;55.688;37.600;2022-08-23T14:07:58;14.52;;;7.30;;
70199;SDS011;57587;55.688;37.600;2022-08-23T14:10:30;12.10;;;6.53;;
70199;SDS011;57587;55.688;37.600;2022-08-23T14:12:57;12.27;;;7.60;;
70199;SDS011;57587;55.688;37.600;2022-08-23T14:15:28;17.65;;;7.90;;
70199;SDS011;57587;55.688;37.600;2022-08-23T14:18:18;9.93;;;6.50;;
70199;SDS011;57587;55.688;37.600;2022-08-23T14:20:48;11.32;;;6.70;;
70199;SDS011;57587;55.688;37.600;2022-08-23T14:23:16;12.18;;;7.18;;
70199;SDS011;57587;55.688;37.600;2022-08-23T14:25:44;14.55;;;7.70;;
70199;SDS011;57587;55.688;37.600;2022-08-23T14:28:15;12.98;;;6.88;;
70199;SDS011;57587;55.688;37.600;2022-08-23T14:30:44;17.93;;;7.00;;
70199;SDS011;57587;55.688;37.600;2022-08-23T14:33:11;11.70;;;7.20;;
70199;SDS011;57587;55.688;37.600;2022-08-23T14:35:38;12.48;;;7.93;;
70199;SDS011;57587;55.688;37.600;2022-08-23T14:38:08;13.85;;;7.10;;
70199;SDS011;57587;55.688;37.600;2022-08-23T14:40:35;9.52;;;6.60;;
70199;SDS011;57587;55.688;37.600;2022-08-23T14:43:03;13.97;;;7.27;;
70199;SDS011;57587;55.688;37.600;2022-08-23T14:45:31;14.00;;;6.50;;
70199;SDS011;57587;55.688;37.600;2022-08-23T14:47:58;17.13;;;7.05;;
70199;SDS011;57587;55.688;37.600;2022-08-23T14:50:27;10.93;;;6.97;;
70199;SDS011;57587;55.688;37.600;2022-08-23T14:52:54;18.52;;;7.20;;
70199;SDS011;57587;55.688;37.600;2022-08-23T14:55:21;12.70;;;6.37;;
70199;SDS011;57587;55.688;37.600;2022-08-23T14:57:50;12.23;;;6.82;;
70199;SDS011;57587;55.688;37.600;2022-08-23T15:00:18;13.93;;;6.80;;
70199;SDS011;57587;55.688;37.600;2022-08-23T15:02:45;16.35;;;7.22;;
70199;SDS011;57587;55.688;37.600;2022-08-23T15:05:14;22.77;;;7.63;;
70199;SDS011;57587;55.688;37.600;2022-08-23T15:07:42;16.90;;;7.40;;
70199;SDS011;57587;55.688;37.600;2022-08-23T15:10:10;15.15;;;6.55;;
70199;SDS011;57587;55.688;37.600;2022-08-23T15:12:59;13.73;;;7.18;;
70199;SDS011;57587;55.688;37.600;2022-08-23T15:15:44;15.77;;;7.38;;
70199;SDS011;57587;55.688;37.600;2022-08-23T15:18:14;11.25;;;6.57;;
70199;SDS011;57587;55.688;37.600;2022-08-23T15:20:43;12.60;;;6.87;;
70199;SDS011;57587;55.688;37.600;2022-08-23T15:23:11;10.73;;;6.78;;
70199;SDS011;57587;55.688;37.600;2022-08-23T15:25:39;13.13;;;6.88;;
70199;SDS011;57587;55.688;37.600;2022-08-23T15:28:09;24.42;;;7.53;;
70199;SDS011;57587;55.688;37.600;2022-08-23T15:30:45;13.73;;;6.70;;
70199;SDS011;57587;55.688;37.600;2022-08-23T15:33:25;12.57;;;6.97;;
70199;SDS011;57587;55.688;37.600;2022-08-23T15:36:19;15.35;;;7.68;;
70199;SDS011;57587;55.688;37.600;2022-08-23T15:38:50;24.98;;;7.32;;
70199;SDS011;57587;55.688;37.600;2022-08-23T15:41:21;12.77;;;7.10;;
70199;SDS011;57587;55.688;37.600;2022-08-23T15:44:00;13.68;;;7.38;;
70199;SDS011;57587;55.688;37.600;2022-08-23T15:46:28;15.03;;;6.70;;
70199;SDS011;57587;55.688;37.600;2022-08-23T15:49:02;14.30;;;6.38;;
70199;SDS011;57587;55.688;37.600;2022-08-23T15:51:40;16.75;;;6.90;;
70199;SDS011;57587;55.688;37.600;2022-08-23T15:54:28;16.25;;;7.25;;
70199;SDS011;57587;55.688;37.600;2022-08-23T15:56:55;16.25;;;7.07;;
70199;SDS011;57587;55.688;37.600;2022-08-23T15:59:30;18.10;;;7.23;;
70199;SDS011;57587;55.688;37.600;2022-08-23T16:02:02;13.32;;;6.43;;
70199;SDS011;57587;55.688;37.600;2022-08-23T16:04:31;16.48;;;6.65;;
70199;SDS011;57587;55.688;37.600;2022-08-23T16:07:05;12.50;;;6.55;;
70199;SDS011;57587;55.688;37.600;2022-08-23T16:09:35;22.67;;;7.13;;
70199;SDS011;57587;55.688;37.600;2022-08-23T16:12:05;16.77;;;7.40;;
70199;SDS011;57587;55.688;37.600;2022-08-23T16:14:34;12.98;;;6.45;;
70199;SDS011;57587;55.688;37.600;2022-08-23T16:17:02;15.40;;;6.90;;
70199;SDS011;57587;55.688;37.600;2022-08-23T16:19:29;18.80;;;7.88;;
70199;SDS011;57587;55.688;37.600;2022-08-23T16:21:58;16.52;;;7.57;;
70199;SDS011;57587;55.688;37.600;2022-08-23T16:24:25;16.70;;;7.67;;
70199;SDS011;57587;55.688;37.600;2022-08-23T16:26:55;22.27;;;9.50;;
70199;SDS011;57587;55.688;37.600;2022-08-23T16:29:25;18.92;;;9.30;;
70199;SDS011;57587;55.688;37.600;2022-08-23T16:31:57;19.73;;;12.05;;
70199;SDS011;57587;55.688;37.600;2022-08-23T16:34:28;25.02;;;13.68;;
70199;SDS011;57587;55.688;37.600;2022-08-23T16:36:59;31.13;;;17.90;;
70199;SDS011;57587;55.688;37.600;2022-08-23T16:39:30;36.38;;;17.58;;
70199;SDS011;57587;55.688;37.600;2022-08-23T16:42:01;39.80;;;20.45;;